createdAt,value
2017-05-31T00:00:03.542Z,1018.34
2017-05-31T00:05:02.851Z,1018.45
2017-05-31T00:10:03.482Z,1018.36
2017-05-31T00:15:03.025Z,1018.48
2017-05-31T00:20:02.807Z,1018.47
2017-05-31T00:25:03.501Z,1018.57
2017-05-31T00:30:03.285Z,1018.63
2017-05-31T00:35:03.154Z,1018.73
2017-05-31T00:40:02.694Z,1018.73
2017-05-31T00:45:03.276Z,1018.71
2017-05-31T00:50:03.058Z,1018.71
2017-05-31T00:55:03.589Z,1018.7
2017-05-31T01:00:03.405Z,1018.7
2017-05-31T01:05:02.876Z,1018.7
2017-05-31T01:10:02.717Z,1018.75
2017-05-31T01:15:03.374Z,1018.73
2017-05-31T01:20:03.250Z,1018.81
2017-05-31T01:25:02.890Z,1018.91
2017-05-31T01:30:03.569Z,1018.97
2017-05-31T01:35:03.160Z,1018.99
2017-05-31T01:40:02.986Z,1019.04
2017-05-31T01:45:02.637Z,1019.05
2017-05-31T01:50:03.247Z,1019.09
2017-05-31T01:55:02.755Z,1019.12
2017-05-31T02:00:03.324Z,1019.12
2017-05-31T02:05:03.109Z,1019.14
2017-05-31T02:10:02.817Z,1019.08
2017-05-31T02:15:02.714Z,1019.12
2017-05-31T02:20:03.449Z,1019.12
2017-05-31T02:25:02.965Z,1019.18
2017-05-31T02:30:03.534Z,1019.15
2017-05-31T02:35:03.149Z,1019.19
2017-05-31T02:40:02.841Z,1019.2
2017-05-31T02:45:03.515Z,1019.15
2017-05-31T02:50:03.173Z,1019.2
2017-05-31T02:55:02.846Z,1019.19
2017-05-31T03:00:03.546Z,1019.23
2017-05-31T03:05:03.220Z,1019.17
2017-05-31T03:10:03.046Z,1019.24
2017-05-31T03:15:02.702Z,1019.21
2017-05-31T03:20:03.369Z,1019.31
2017-05-31T03:25:02.868Z,1019.29
2017-05-31T03:30:03.364Z,1019.31
2017-05-31T03:35:02.869Z,1019.35
2017-05-31T03:40:03.353Z,1019.36
2017-05-31T03:45:02.895Z,1019.34
2017-05-31T03:50:03.311Z,1019.38
2017-05-31T03:55:02.640Z,1019.47
2017-05-31T04:00:03.039Z,1019.48
2017-05-31T04:05:03.725Z,1019.59
2017-05-31T04:10:03.231Z,1019.59
2017-05-31T04:15:03.617Z,1019.66
2017-05-31T04:20:02.985Z,1019.63
2017-05-31T04:25:03.553Z,1019.77
2017-05-31T04:30:02.964Z,1019.75
2017-05-31T04:35:03.492Z,1019.82
2017-05-31T04:40:02.980Z,1019.83
2017-05-31T04:45:03.390Z,1019.84
2017-05-31T04:50:02.917Z,1019.95
2017-05-31T04:55:03.347Z,1019.96
2017-05-31T05:00:02.755Z,1020.09
2017-05-31T05:05:03.356Z,1020.14
2017-05-31T05:10:02.970Z,1020.11
2017-05-31T05:15:03.359Z,1020.2
2017-05-31T05:20:02.889Z,1020.26
2017-05-31T05:25:03.310Z,1020.23
2017-05-31T05:30:02.872Z,1020.29
2017-05-31T05:35:03.330Z,1020.3
2017-05-31T05:40:02.995Z,1020.38
2017-05-31T05:45:03.379Z,1020.45
2017-05-31T05:50:02.886Z,1020.41
2017-05-31T05:55:03.242Z,1020.46
2017-05-31T06:00:02.639Z,1020.47
2017-05-31T06:05:03.154Z,1020.63
2017-05-31T06:10:03.601Z,1020.57
2017-05-31T06:15:03.206Z,1020.71
2017-05-31T06:20:02.657Z,1020.7
2017-05-31T06:25:03.156Z,1020.83
2017-05-31T06:30:03.577Z,1020.84
2017-05-31T06:35:03.106Z,1020.85
2017-05-31T06:40:03.551Z,1020.86
2017-05-31T06:45:02.875Z,1020.8
2017-05-31T06:50:03.255Z,1020.96
2017-05-31T06:55:02.675Z,1020.88
2017-05-31T07:00:03.264Z,1020.97
2017-05-31T07:05:02.866Z,1021.04
2017-05-31T07:10:03.529Z,1021.13
2017-05-31T07:15:03.093Z,1021.17
2017-05-31T07:20:02.682Z,1021.15
2017-05-31T07:25:03.282Z,1021.17
2017-05-31T07:30:02.770Z,1021.17
2017-05-31T07:35:03.368Z,1021.23
2017-05-31T07:40:02.764Z,1021.3
2017-05-31T07:45:03.317Z,1021.39
2017-05-31T07:50:02.679Z,1021.48
2017-05-31T07:55:03.288Z,1021.45
2017-05-31T08:00:02.811Z,1021.54
2017-05-31T08:05:03.364Z,1021.48
2017-05-31T08:10:03.019Z,1021.56
2017-05-31T08:15:03.489Z,1021.57
2017-05-31T08:20:03.093Z,1021.59
2017-05-31T08:30:03.369Z,1021.57
2017-05-31T08:40:03.630Z,1021.72
2017-05-31T08:45:03.247Z,1021.73
2017-05-31T08:50:02.763Z,1021.77
2017-05-31T08:55:03.482Z,1021.69
2017-05-31T09:00:03.332Z,1021.75
2017-05-31T09:05:03.435Z,1021.7
2017-05-31T09:10:02.840Z,1021.75
2017-05-31T09:15:03.060Z,1021.66
2017-05-31T09:20:03.099Z,1021.79
2017-05-31T09:25:02.696Z,1021.78
2017-05-31T09:35:02.707Z,1021.75
2017-05-31T09:40:03.171Z,1021.66
2017-05-31T09:45:03.503Z,1021.72
2017-05-31T09:50:03.081Z,1021.81
2017-05-31T09:55:02.954Z,1021.73
2017-05-31T10:00:03.223Z,1021.68
2017-05-31T10:05:02.798Z,1021.69
2017-05-31T10:10:02.661Z,1021.71
2017-05-31T10:15:03.178Z,1021.71
2017-05-31T10:20:02.777Z,1021.9
2017-05-31T10:25:02.989Z,1021.82
2017-05-31T10:30:03.309Z,1021.66
2017-05-31T10:35:03.370Z,1021.71
2017-05-31T10:40:02.988Z,1021.76
2017-05-31T10:45:03.116Z,1021.6
2017-05-31T10:50:03.583Z,1021.57
2017-05-31T10:55:02.928Z,1021.77
2017-05-31T11:00:03.481Z,1021.8
2017-05-31T11:05:02.846Z,1021.73
2017-05-31T11:10:03.368Z,1021.6
2017-05-31T11:15:02.729Z,1021.64
2017-05-31T11:20:03.068Z,1021.56
2017-05-31T11:25:03.421Z,1021.59
2017-05-31T11:30:02.864Z,1021.47
2017-05-31T11:35:03.278Z,1021.48
2017-05-31T11:40:03.613Z,1021.58
2017-05-31T11:45:03.090Z,1021.47
2017-05-31T11:50:03.597Z,1021.54
2017-05-31T11:55:03.190Z,1021.4
2017-05-31T12:00:02.686Z,1021.32
2017-05-31T12:05:03.283Z,1021.4
2017-05-31T12:10:02.938Z,1021.37
2017-05-31T12:15:03.103Z,1021.43
2017-05-31T12:20:03.581Z,1021.48
2017-05-31T12:25:03.133Z,1021.44
2017-05-31T12:30:02.793Z,1021.41
2017-05-31T12:35:03.184Z,1021.35
2017-05-31T12:40:02.717Z,1021.35
2017-05-31T12:45:03.346Z,1021.27
2017-05-31T12:50:02.786Z,1021.3
2017-05-31T12:55:03.281Z,1021.26
2017-05-31T13:00:02.777Z,1021.18
2017-05-31T13:05:03.374Z,1021.1
2017-05-31T13:10:02.946Z,1021.12
2017-05-31T13:15:03.575Z,1021.09
2017-05-31T13:20:03.141Z,1021.13
2017-05-31T13:25:03.403Z,1021.14
2017-05-31T13:30:02.969Z,1021.15
2017-05-31T13:35:03.430Z,1021.18
2017-05-31T13:40:03.023Z,1021.14
2017-05-31T13:45:02.732Z,1021.16
2017-05-31T13:50:03.296Z,1021.04
2017-05-31T13:55:03.079Z,1021.11
2017-05-31T14:00:03.490Z,1021.05
2017-05-31T14:05:02.885Z,1021.06
2017-05-31T14:10:03.575Z,1021.06
2017-05-31T14:15:03.349Z,1021.02
2017-05-31T14:20:02.918Z,1020.99
2017-05-31T14:25:03.358Z,1021.02
2017-05-31T14:30:03.543Z,1020.93
2017-05-31T14:35:03.178Z,1020.95
2017-05-31T14:40:02.614Z,1021.02
2017-05-31T14:45:03.123Z,1020.95
2017-05-31T14:50:03.576Z,1020.9
2017-05-31T14:55:03.299Z,1020.93
2017-05-31T15:00:02.765Z,1020.85
2017-05-31T15:05:03.348Z,1020.85
2017-05-31T15:10:02.952Z,1020.85
2017-05-31T15:15:03.634Z,1020.84
2017-05-31T15:20:03.163Z,1020.85
2017-05-31T15:25:02.866Z,1020.78
2017-05-31T15:30:03.111Z,1020.72
2017-05-31T15:35:03.491Z,1020.76
2017-05-31T15:40:03.157Z,1020.75
2017-05-31T15:45:02.676Z,1020.72
2017-05-31T15:50:03.109Z,1020.71
2017-05-31T15:55:02.786Z,1020.74
2017-05-31T16:00:03.331Z,1020.71
2017-05-31T16:05:02.934Z,1020.75
2017-05-31T16:10:02.666Z,1020.78
2017-05-31T16:15:03.121Z,1020.79
2017-05-31T16:20:02.865Z,1020.83
2017-05-31T16:25:03.411Z,1020.84
2017-05-31T16:30:02.907Z,1020.9
2017-05-31T16:35:03.370Z,1020.95
2017-05-31T16:40:02.891Z,1020.92
2017-05-31T16:45:03.321Z,1020.97
2017-05-31T16:50:02.899Z,1020.98
2017-05-31T16:55:02.661Z,1020.97
2017-05-31T17:00:03.213Z,1020.97
2017-05-31T17:05:02.670Z,1021.11
2017-05-31T17:10:03.441Z,1021.02
2017-05-31T17:15:03.022Z,1021.15
2017-05-31T17:20:03.608Z,1021.15
2017-05-31T17:25:03.105Z,1021.21
2017-05-31T17:30:02.684Z,1021.21
2017-05-31T17:35:03.062Z,1021.25
2017-05-31T17:40:02.725Z,1021.18
2017-05-31T17:45:03.261Z,1021.26
2017-05-31T17:50:03.558Z,1021.23
2017-05-31T17:55:03.120Z,1021.26
2017-05-31T18:00:03.545Z,1021.31
2017-05-31T18:05:02.980Z,1021.35
2017-05-31T18:10:02.684Z,1021.29
2017-05-31T18:15:03.183Z,1021.29
2017-05-31T18:20:02.651Z,1021.29
2017-05-31T18:25:03.134Z,1021.29
2017-05-31T18:30:02.781Z,1021.37
2017-05-31T18:35:03.211Z,1021.45
2017-05-31T18:40:02.825Z,1021.41
2017-05-31T18:45:02.808Z,1021.52
2017-05-31T18:55:02.209Z,1021.49
2017-05-31T19:05:02.724Z,1021.56
2017-05-31T19:10:03.231Z,1021.56
2017-05-31T19:15:02.684Z,1021.51
2017-05-31T19:20:03.119Z,1021.57
2017-05-31T19:25:02.777Z,1021.6
2017-05-31T19:30:03.060Z,1021.65
2017-05-31T19:35:02.596Z,1021.67
2017-05-31T19:40:03.132Z,1021.8
2017-05-31T19:45:02.518Z,1021.84
2017-05-31T19:50:02.941Z,1021.9
2017-05-31T19:55:03.402Z,1021.91
2017-05-31T20:00:02.792Z,1021.99
2017-05-31T20:05:03.093Z,1022
2017-05-31T20:10:03.484Z,1022.06
2017-05-31T20:15:02.852Z,1022.06
2017-05-31T20:20:03.222Z,1022.06
2017-05-31T20:25:03.020Z,1022.09
2017-05-31T20:30:03.398Z,1022.09
2017-05-31T20:35:02.709Z,1022.07
2017-05-31T20:40:03.251Z,1022.16
2017-05-31T20:45:02.615Z,1022.24
2017-05-31T20:50:03.084Z,1022.15
2017-05-31T20:55:02.499Z,1022.22
2017-05-31T21:00:02.909Z,1022.31
2017-05-31T21:05:02.576Z,1022.39
2017-05-31T21:10:03.172Z,1022.44
2017-05-31T21:15:02.562Z,1022.43
2017-05-31T21:20:02.975Z,1022.43
2017-05-31T21:25:03.425Z,1022.47
2017-05-31T21:30:02.903Z,1022.43
2017-05-31T21:35:03.251Z,1022.44
2017-05-31T21:40:02.591Z,1022.41
2017-05-31T21:45:02.939Z,1022.35
2017-05-31T21:50:03.333Z,1022.36
2017-05-31T21:55:02.528Z,1022.39
2017-05-31T22:00:02.851Z,1022.45
2017-05-31T22:05:02.663Z,1022.49
2017-05-31T22:10:03.055Z,1022.52
2017-05-31T22:15:03.092Z,1022.61
2017-05-31T22:20:03.255Z,1022.64
2017-05-31T22:25:02.557Z,1022.64
2017-05-31T22:30:02.888Z,1022.63
2017-05-31T22:35:02.905Z,1022.66
2017-05-31T22:40:03.075Z,1022.65
2017-05-31T22:45:02.561Z,1022.71
2017-05-31T22:50:03.469Z,1022.69
2017-05-31T22:55:02.644Z,1022.65
2017-05-31T23:00:02.851Z,1022.6
2017-05-31T23:05:02.686Z,1022.6
2017-05-31T23:10:03.431Z,1022.63
2017-05-31T23:15:02.610Z,1022.61
2017-05-31T23:20:03.202Z,1022.6
2017-05-31T23:25:03.089Z,1022.65
2017-05-31T23:30:02.951Z,1022.67
2017-05-31T23:35:03.478Z,1022.69
2017-05-31T23:40:03.293Z,1022.57
2017-05-31T23:45:03.127Z,1022.58
2017-05-31T23:50:02.933Z,1022.62
2017-05-31T23:55:03.493Z,1022.65
